createdAt,value
2018-09-14T00:01:35.801Z,102225.55
2018-09-14T00:04:04.575Z,102226.79
2018-09-14T00:06:33.388Z,102221.67
2018-09-14T00:09:02.176Z,102224.56
2018-09-14T00:11:31.108Z,102221.81
2018-09-14T00:13:59.900Z,102212.34
2018-09-14T00:16:28.727Z,102214.92
2018-09-14T00:18:57.517Z,102213.66
2018-09-14T00:21:31.151Z,102214.13
2018-09-14T00:24:00.032Z,102211.23
2018-09-14T00:26:28.851Z,102225.14
2018-09-14T00:28:57.693Z,102213.16
2018-09-14T00:31:26.520Z,102213.71
2018-09-14T00:33:55.313Z,102215.59
2018-09-14T00:36:24.221Z,102213.25
2018-09-14T00:38:53.132Z,102217.66
2018-09-14T00:41:21.934Z,102217.11
2018-09-14T00:43:50.767Z,102213.83
2018-09-14T00:46:19.586Z,102209.64
2018-09-14T00:48:48.493Z,102214.46
2018-09-14T00:51:17.280Z,102206.50
2018-09-14T00:53:46.131Z,102209.31
2018-09-14T00:56:14.952Z,102209.56
2018-09-14T00:58:43.783Z,102204.98
2018-09-14T01:01:12.626Z,102201.12
2018-09-14T01:03:41.468Z,102200.89
2018-09-14T01:06:10.280Z,102204.59
2018-09-14T01:08:39.121Z,102205.95
2018-09-14T01:11:07.948Z,102201.20
2018-09-14T01:13:36.863Z,102207.31
2018-09-14T01:16:05.731Z,102204.12
2018-09-14T01:18:34.603Z,102201.13
2018-09-14T01:21:03.438Z,102196.78
2018-09-14T01:23:32.256Z,102199.98
2018-09-14T01:26:01.096Z,102202.57
2018-09-14T01:28:29.975Z,102201.84
2018-09-14T01:30:59.011Z,102196.48
2018-09-14T01:33:27.823Z,102199.94
2018-09-14T01:36:02.332Z,102195.81
2018-09-14T01:38:31.419Z,102193.44
2018-09-14T01:41:00.235Z,102200.97
2018-09-14T01:43:29.072Z,102197.99
2018-09-14T01:45:57.908Z,102198.24
2018-09-14T01:48:26.707Z,102197.77
2018-09-14T01:50:55.612Z,102194.03
2018-09-14T01:53:24.457Z,102198.70
2018-09-14T01:55:53.284Z,102197.25
2018-09-14T01:58:22.095Z,102195.95
2018-09-14T02:00:50.985Z,102189.56
2018-09-14T02:03:19.914Z,102182.27
2018-09-14T02:05:48.788Z,102184.61
2018-09-14T02:08:17.565Z,102182.27
2018-09-14T02:10:46.406Z,102179.54
2018-09-14T02:13:15.165Z,102184.92
2018-09-14T02:15:44.040Z,102182.31
2018-09-14T02:18:12.799Z,102182.31
2018-09-14T02:20:41.620Z,102176.31
2018-09-14T02:23:10.404Z,102174.11
2018-09-14T02:25:39.321Z,102174.98
2018-09-14T02:28:08.131Z,102176.09
2018-09-14T02:30:37.012Z,102172.07
2018-09-14T02:33:05.859Z,102166.22
2018-09-14T02:35:34.669Z,102171.67
2018-09-14T02:38:03.493Z,102167.95
2018-09-14T02:40:32.360Z,102160.45
2018-09-14T02:43:01.208Z,102161.73
2018-09-14T02:45:30.004Z,102162.08
2018-09-14T02:47:58.858Z,102168.95
2018-09-14T02:50:27.651Z,102167.08
2018-09-14T02:52:56.576Z,102162.73
2018-09-14T02:55:25.450Z,102161.80
2018-09-14T02:57:54.276Z,102158.02
2018-09-14T03:00:23.090Z,102147.75
2018-09-14T03:02:51.884Z,102150.80
2018-09-14T03:05:20.698Z,102151.59
2018-09-14T03:07:49.535Z,102148.02
2018-09-14T03:10:18.334Z,102151.87
2018-09-14T03:12:47.147Z,102144.73
2018-09-14T03:15:15.933Z,102147.56
2018-09-14T03:17:44.811Z,102151.20
2018-09-14T03:20:13.577Z,102150.06
2018-09-14T03:22:42.381Z,102144.75
2018-09-14T03:25:11.179Z,102150.69
2018-09-14T03:27:39.999Z,102144.84
2018-09-14T03:30:08.967Z,102147.41
2018-09-14T03:32:37.807Z,102145.41
2018-09-14T03:35:06.607Z,102142.70
2018-09-14T03:37:35.385Z,102150.91
2018-09-14T03:40:04.377Z,102153.47
2018-09-14T03:42:33.311Z,102146.83
2018-09-14T03:45:02.507Z,102150.20
2018-09-14T03:47:31.337Z,102147.32
2018-09-14T03:50:00.159Z,102152.22
2018-09-14T03:52:28.955Z,102153.86
2018-09-14T03:54:57.828Z,102144.12
2018-09-14T03:57:26.992Z,102145.48
2018-09-14T03:59:55.723Z,102152.13
2018-09-14T04:02:24.488Z,102145.77
2018-09-14T04:04:53.270Z,102151.11
2018-09-14T04:07:22.094Z,102141.74
2018-09-14T04:09:50.924Z,102146.48
2018-09-14T04:12:19.744Z,102145.80
2018-09-14T04:14:48.577Z,102140.10
2018-09-14T04:17:17.389Z,102144.11
2018-09-14T04:19:46.383Z,102136.92
2018-09-14T04:22:15.147Z,102149.43
2018-09-14T04:24:43.963Z,102149.73
2018-09-14T04:27:12.744Z,102148.95
2018-09-14T04:29:41.548Z,102150.28
2018-09-14T04:32:10.398Z,102146.38
2018-09-14T04:34:39.212Z,102151.30
2018-09-14T04:37:08.158Z,102145.41
2018-09-14T04:39:36.930Z,102148.77
2018-09-14T04:42:05.813Z,102150.21
2018-09-14T04:44:34.664Z,102146.99
2018-09-14T04:47:03.524Z,102144.48
2018-09-14T04:49:32.535Z,102145.42
2018-09-14T04:52:01.450Z,102146.97
2018-09-14T04:54:30.221Z,102149.49
2018-09-14T04:56:59.103Z,102144.15
2018-09-14T04:59:27.871Z,102150.12
2018-09-14T05:01:56.678Z,102149.58
2018-09-14T05:04:25.460Z,102153.92
2018-09-14T05:06:54.322Z,102151.63
2018-09-14T05:09:23.135Z,102142.25
2018-09-14T05:11:51.990Z,102147.48
2018-09-14T05:14:20.804Z,102151.23
2018-09-14T05:16:49.854Z,102164.38
2018-09-14T05:19:18.652Z,102177.03
2018-09-14T05:21:47.900Z,102175.70
2018-09-14T05:24:16.737Z,102181.30
2018-09-14T05:26:45.452Z,102178.32
2018-09-14T05:29:14.271Z,102179.69
2018-09-14T05:31:43.041Z,102176.41
2018-09-14T05:34:11.884Z,102183.95
2018-09-14T05:36:40.678Z,102186.30
2018-09-14T05:39:10.040Z,102186.56
2018-09-14T05:41:38.816Z,102179.27
2018-09-14T05:44:07.690Z,102181.05
2018-09-14T05:46:36.515Z,102183.03
2018-09-14T05:49:05.431Z,102181.91
2018-09-14T05:51:34.542Z,102184.92
2018-09-14T05:54:03.386Z,102186.80
2018-09-14T05:56:32.198Z,102183.77
2018-09-14T05:59:01.096Z,102185.76
2018-09-14T06:01:29.978Z,102190.02
2018-09-14T06:03:58.771Z,102190.09
2018-09-14T06:06:27.565Z,102185.80
2018-09-14T06:08:56.404Z,102189.66
2018-09-14T06:11:25.448Z,102189.97
2018-09-14T06:13:54.283Z,102197.00
2018-09-14T06:16:23.072Z,102188.84
2018-09-14T06:18:51.936Z,102188.30
2018-09-14T06:21:20.725Z,102191.61
2018-09-14T06:23:49.618Z,102193.97
2018-09-14T06:26:18.425Z,102190.00
2018-09-14T06:28:47.478Z,102192.45
2018-09-14T06:31:16.435Z,102195.86
2018-09-14T06:33:51.793Z,102205.34
2018-09-14T06:36:20.666Z,102196.44
2018-09-14T06:38:49.483Z,102194.02
2018-09-14T06:41:18.392Z,102188.09
2018-09-14T06:43:47.230Z,102191.27
2018-09-14T06:46:16.051Z,102188.31
2018-09-14T06:48:44.884Z,102185.03
2018-09-14T06:51:13.704Z,102185.30
2018-09-14T06:53:42.492Z,102188.76
2018-09-14T06:56:11.296Z,102189.07
2018-09-14T06:58:40.275Z,102193.91
2018-09-14T07:01:09.152Z,102185.63
2018-09-14T07:03:37.912Z,102188.88
2018-09-14T07:06:06.743Z,102194.80
2018-09-14T07:08:35.496Z,102190.00
2018-09-14T07:11:04.359Z,102189.23
2018-09-14T07:13:34.170Z,102189.64
2018-09-14T07:16:03.108Z,102189.72
2018-09-14T07:18:31.877Z,102193.98
2018-09-14T07:21:00.708Z,102190.45
2018-09-14T07:23:29.467Z,102191.86
2018-09-14T07:25:58.355Z,102193.55
2018-09-14T07:28:27.201Z,102186.47
2018-09-14T07:30:56.032Z,102192.56
2018-09-14T07:33:24.846Z,102191.05
2018-09-14T07:35:53.604Z,102195.97
2018-09-14T07:38:22.515Z,102194.49
2018-09-14T07:40:51.514Z,102191.61
2018-09-14T07:43:20.351Z,102192.16
2018-09-14T07:45:49.195Z,102192.34
2018-09-14T07:48:18.094Z,102184.50
2018-09-14T07:50:46.892Z,102189.50
2018-09-14T07:53:15.708Z,102191.67
2018-09-14T07:55:44.463Z,102186.73
2018-09-14T07:58:13.563Z,102191.79
2018-09-14T08:00:42.408Z,102192.63
2018-09-14T08:03:11.296Z,102191.75
2018-09-14T08:05:40.203Z,102193.88
2018-09-14T08:08:09.019Z,102196.34
2018-09-14T08:10:37.931Z,102189.64
2018-09-14T08:13:07.226Z,102193.97
2018-09-14T08:15:36.069Z,102188.23
2018-09-14T08:18:05.366Z,102195.03
2018-09-14T08:20:34.128Z,102199.23
2018-09-14T08:23:02.923Z,102199.00
2018-09-14T08:25:31.921Z,102188.78
2018-09-14T08:28:00.767Z,102193.56
2018-09-14T08:30:29.612Z,102199.00
2018-09-14T08:32:58.385Z,102193.19
2018-09-14T08:35:27.245Z,102199.05
2018-09-14T08:37:56.020Z,102201.78
2018-09-14T08:40:24.996Z,102201.90
2018-09-14T08:42:53.828Z,102199.52
2018-09-14T08:45:22.700Z,102204.48
2018-09-14T08:47:51.556Z,102210.59
2018-09-14T08:50:20.328Z,102203.82
2018-09-14T08:52:49.317Z,102206.30
2018-09-14T08:55:18.181Z,102205.11
2018-09-14T08:57:46.949Z,102205.09
2018-09-14T09:00:20.507Z,102207.53
2018-09-14T09:02:50.048Z,102210.81
2018-09-14T09:05:18.944Z,102208.12
2018-09-14T09:07:47.862Z,102209.97
2018-09-14T09:10:17.152Z,102209.92
2018-09-14T09:12:46.072Z,102215.16
2018-09-14T09:15:14.992Z,102218.05
2018-09-14T09:17:44.042Z,102210.34
2018-09-14T09:20:13.069Z,102213.48
2018-09-14T09:22:41.845Z,102218.83
2018-09-14T09:25:10.971Z,102218.28
2018-09-14T09:27:39.844Z,102220.86
2018-09-14T09:30:08.775Z,102220.69
2018-09-14T09:32:37.660Z,102215.34
2018-09-14T09:35:06.540Z,102214.59
2018-09-14T09:37:35.770Z,102210.58
2018-09-14T09:40:04.663Z,102216.66
2018-09-14T09:42:34.172Z,102209.86
2018-09-14T09:45:03.003Z,102209.67
2018-09-14T09:47:31.843Z,102208.19
2018-09-14T09:50:00.639Z,102207.20
2018-09-14T09:52:29.489Z,102203.79
2018-09-14T09:54:58.349Z,102200.14
2018-09-14T09:57:27.172Z,102199.60
2018-09-14T09:59:55.948Z,102205.47
2018-09-14T10:02:33.191Z,102197.88
2018-09-14T10:05:07.585Z,102201.05
2018-09-14T10:07:36.536Z,102195.81
2018-09-14T10:10:05.405Z,102192.73
2018-09-14T10:12:34.618Z,102188.01
2018-09-14T10:15:03.585Z,102190.59
2018-09-14T10:17:32.406Z,102192.77
2018-09-14T10:20:01.389Z,102191.77
2018-09-14T10:22:30.184Z,102191.09
2018-09-14T10:24:59.011Z,102186.73
2018-09-14T10:27:27.851Z,102184.66
2018-09-14T10:29:56.649Z,102177.36
2018-09-14T10:32:25.412Z,102179.17
2018-09-14T10:34:54.236Z,102186.09
2018-09-14T10:37:23.075Z,102185.89
2018-09-14T10:39:52.181Z,102183.82
2018-09-14T10:42:21.046Z,102177.41
2018-09-14T10:44:49.884Z,102172.58
2018-09-14T10:47:18.678Z,102180.06
2018-09-14T10:49:47.816Z,102170.14
2018-09-14T10:52:16.672Z,102166.30
2018-09-14T10:54:45.569Z,102169.09
2018-09-14T10:57:14.353Z,102160.53
2018-09-14T10:59:43.217Z,102168.08
2018-09-14T11:02:12.002Z,102158.14
2018-09-14T11:04:40.851Z,102149.68
2018-09-14T11:07:09.723Z,102154.87
2018-09-14T11:09:38.452Z,102147.38
2018-09-14T11:12:07.371Z,102145.05
2018-09-14T11:14:36.171Z,102147.96
2018-09-14T11:17:05.061Z,102139.61
2018-09-14T11:19:33.951Z,102132.03
2018-09-14T11:22:02.804Z,102130.83
2018-09-14T11:24:31.613Z,102127.07
2018-09-14T11:27:00.444Z,102127.95
2018-09-14T11:29:29.292Z,102129.09
2018-09-14T11:31:58.106Z,102125.00
2018-09-14T11:34:26.897Z,102120.38
2018-09-14T11:36:55.750Z,102119.43
2018-09-14T11:39:24.504Z,102113.54
2018-09-14T11:41:53.413Z,102110.45
2018-09-14T11:44:22.192Z,102099.30
2018-09-14T11:46:51.334Z,102107.45
2018-09-14T11:49:20.152Z,102101.57
2018-09-14T11:51:49.007Z,102091.24
2018-09-14T11:54:17.960Z,102099.52
2018-09-14T11:56:46.663Z,102097.75
2018-09-14T11:59:15.784Z,102095.59
2018-09-14T12:01:44.572Z,102082.44
2018-09-14T12:04:13.423Z,102081.74
2018-09-14T12:06:42.254Z,102082.25
2018-09-14T12:09:12.129Z,102082.34
2018-09-14T12:11:41.372Z,102075.19
2018-09-14T12:14:10.707Z,102082.00
2018-09-14T12:16:39.455Z,102081.88
2018-09-14T12:19:08.366Z,102073.91
2018-09-14T12:21:37.145Z,102066.02
2018-09-14T12:24:05.954Z,102060.91
2018-09-14T12:26:34.711Z,102059.17
2018-09-14T12:29:03.566Z,102059.41
2018-09-14T12:31:32.512Z,102050.99
2018-09-14T12:34:01.371Z,102047.28
2018-09-14T12:36:30.176Z,102046.53
2018-09-14T12:38:59.008Z,102042.98
2018-09-14T12:41:27.814Z,102048.73
2018-09-14T12:43:56.618Z,102043.60
2018-09-14T12:46:25.719Z,102038.16
2018-09-14T12:48:54.489Z,102044.97
2018-09-14T12:51:23.396Z,102042.03
2018-09-14T12:53:52.164Z,102044.17
2018-09-14T12:56:21.117Z,102038.21
2018-09-14T12:58:49.885Z,102031.80
2018-09-14T13:01:18.756Z,102025.57
2018-09-14T13:03:47.524Z,102033.31
2018-09-14T13:06:16.353Z,102029.72
2018-09-14T13:08:45.187Z,102024.37
2018-09-14T13:11:14.052Z,102023.78
2018-09-14T13:13:42.840Z,102020.65
2018-09-14T13:16:11.672Z,102016.67
2018-09-14T13:18:40.482Z,102006.28
2018-09-14T13:21:09.480Z,102010.33
2018-09-14T13:23:38.551Z,102005.39
2018-09-14T13:26:07.388Z,102004.37
2018-09-14T13:28:36.191Z,102006.97
2018-09-14T13:31:05.032Z,101995.86
2018-09-14T13:33:33.863Z,101992.50
2018-09-14T13:36:02.694Z,101991.31
2018-09-14T13:38:31.574Z,101992.28
2018-09-14T13:41:00.393Z,101992.70
2018-09-14T13:43:29.206Z,101995.88
2018-09-14T13:45:58.040Z,101994.10
2018-09-14T13:48:26.860Z,101990.11
2018-09-14T13:50:55.623Z,101983.98
2018-09-14T13:53:24.448Z,101990.52
2018-09-14T13:55:53.216Z,101990.13
2018-09-14T13:58:22.115Z,101988.33
2018-09-14T14:00:50.906Z,101981.02
2018-09-14T14:03:19.707Z,101983.75
2018-09-14T14:05:48.479Z,101979.80
2018-09-14T14:08:17.385Z,101979.79
2018-09-14T14:10:46.571Z,101979.41
2018-09-14T14:13:15.432Z,101981.99
2018-09-14T14:15:44.231Z,101978.02
2018-09-14T14:18:13.048Z,101983.16
2018-09-14T14:20:42.192Z,101973.67
2018-09-14T14:23:11.121Z,101984.74
2018-09-14T14:25:39.863Z,101975.63
2018-09-14T14:28:09.043Z,101975.03
2018-09-14T14:30:37.841Z,101976.98
2018-09-14T14:33:06.994Z,101968.27
2018-09-14T14:35:35.847Z,101968.93
2018-09-14T14:38:04.715Z,101966.27
2018-09-14T14:40:33.856Z,101966.75
2018-09-14T14:43:02.714Z,101964.56
2018-09-14T14:45:31.472Z,101966.74
2018-09-14T14:48:00.400Z,101954.88
2018-09-14T14:50:29.252Z,101958.64
2018-09-14T14:52:58.040Z,101956.24
2018-09-14T14:55:26.873Z,101957.84
2018-09-14T14:57:55.713Z,101957.64
2018-09-14T15:00:24.601Z,101958.80
2018-09-14T15:02:53.367Z,101950.70
2018-09-14T15:05:22.455Z,101947.53
2018-09-14T15:07:51.236Z,101949.10
2018-09-14T15:10:20.068Z,101942.19
2018-09-14T15:12:48.969Z,101938.20
2018-09-14T15:15:17.784Z,101938.79
2018-09-14T15:17:46.580Z,101937.18
2018-09-14T15:20:15.413Z,101939.59
2018-09-14T15:22:44.183Z,101935.23
2018-09-14T15:25:13.049Z,101939.41
2018-09-14T15:27:41.850Z,101933.27
2018-09-14T15:30:10.701Z,101934.81
2018-09-14T15:32:39.763Z,101935.98
2018-09-14T15:35:08.743Z,101925.94
2018-09-14T15:37:37.560Z,101928.53
2018-09-14T15:40:06.609Z,101932.07
2018-09-14T15:42:35.449Z,101931.27
2018-09-14T15:45:04.743Z,101934.20
2018-09-14T15:47:33.539Z,101932.14
2018-09-14T15:50:02.432Z,101929.91
2018-09-14T15:52:31.291Z,101930.45
2018-09-14T15:55:00.072Z,101925.30
2018-09-14T15:57:28.897Z,101921.44
2018-09-14T15:59:57.705Z,101919.33
2018-09-14T16:02:26.607Z,101919.00
2018-09-14T16:04:55.416Z,101915.83
2018-09-14T16:07:24.305Z,101921.67
2018-09-14T16:09:53.123Z,101921.28
2018-09-14T16:12:22.002Z,101915.73
2018-09-14T16:14:50.911Z,101915.66
2018-09-14T16:17:20.023Z,101920.47
2018-09-14T16:19:48.810Z,101916.56
2018-09-14T16:22:17.954Z,101910.98
2018-09-14T16:24:46.791Z,101915.76
2018-09-14T16:27:15.714Z,101911.63
2018-09-14T16:29:44.483Z,101910.84
2018-09-14T16:32:13.287Z,101911.34
2018-09-14T16:34:43.665Z,101916.77
2018-09-14T16:37:12.554Z,101911.53
2018-09-14T16:39:41.596Z,101912.21
2018-09-14T16:42:10.387Z,101906.27
2018-09-14T16:44:40.894Z,101911.66
2018-09-14T16:47:10.271Z,101908.52
2018-09-14T16:49:39.520Z,101911.16
2018-09-14T16:52:08.335Z,101907.83
2018-09-14T16:54:37.143Z,101907.30
2018-09-14T16:57:05.976Z,101915.18
2018-09-14T16:59:34.807Z,101910.81
2018-09-14T17:02:03.640Z,101909.47
2018-09-14T17:04:32.520Z,101908.79
2018-09-14T17:07:01.356Z,101912.48
2018-09-14T17:09:30.243Z,101910.65
2018-09-14T17:11:59.112Z,101911.41
2018-09-14T17:14:27.992Z,101912.84
2018-09-14T17:16:56.962Z,101916.52
2018-09-14T17:19:25.791Z,101916.80
2018-09-14T17:21:55.311Z,101918.55
2018-09-14T17:24:24.220Z,101916.33
2018-09-14T17:26:52.989Z,101910.72
2018-09-14T17:29:21.834Z,101917.42
2018-09-14T17:31:50.667Z,101920.16
2018-09-14T17:34:19.505Z,101919.73
2018-09-14T17:36:48.856Z,101912.58
2018-09-14T17:39:17.626Z,101919.38
2018-09-14T17:41:46.856Z,101917.58
2018-09-14T17:44:15.732Z,101915.58
2018-09-14T17:46:44.582Z,101916.10
2018-09-14T17:49:13.358Z,101915.88
2018-09-14T17:51:42.232Z,101918.09
2018-09-14T17:54:11.036Z,101916.25
2018-09-14T17:56:40.730Z,101916.10
2018-09-14T17:59:09.468Z,101911.77
2018-09-14T18:01:38.363Z,101912.88
2018-09-14T18:04:07.622Z,101913.05
2018-09-14T18:06:36.503Z,101918.71
2018-09-14T18:09:09.211Z,101920.18
2018-09-14T18:11:38.694Z,101923.31
2018-09-14T18:14:07.588Z,101919.50
2018-09-14T18:16:36.783Z,101919.27
2018-09-14T18:19:05.946Z,101924.36
2018-09-14T18:21:34.896Z,101918.79
2018-09-14T18:24:03.721Z,101918.08
2018-09-14T18:26:32.559Z,101924.11
2018-09-14T18:29:01.340Z,101922.93
2018-09-14T18:31:30.227Z,101924.56
2018-09-14T18:33:59.053Z,101921.98
2018-09-14T18:36:27.815Z,101921.75
2018-09-14T18:38:56.613Z,101918.63
2018-09-14T18:41:25.383Z,101918.56
2018-09-14T18:43:54.234Z,101913.48
2018-09-14T18:46:23.054Z,101917.33
2018-09-14T18:48:51.865Z,101923.20
2018-09-14T18:51:20.957Z,101919.16
2018-09-14T18:53:49.764Z,101923.60
2018-09-14T18:56:18.610Z,101916.90
2018-09-14T18:58:47.444Z,101922.91
2018-09-14T19:01:16.191Z,101919.23
2018-09-14T19:03:45.029Z,101927.47
2018-09-14T19:06:13.840Z,101930.36
2018-09-14T19:08:42.747Z,101927.61
2018-09-14T19:11:11.563Z,101931.91
2018-09-14T19:13:40.420Z,101934.43
2018-09-14T19:16:09.200Z,101928.12
2018-09-14T19:18:38.035Z,101923.09
2018-09-14T19:21:06.936Z,101931.48
2018-09-14T19:23:35.838Z,101926.71
2018-09-14T19:26:04.661Z,101928.80
2018-09-14T19:28:33.591Z,101926.47
2018-09-14T19:31:02.771Z,101926.55
2018-09-14T19:33:31.849Z,101928.36
2018-09-14T19:36:00.715Z,101924.46
2018-09-14T19:38:29.627Z,101929.33
2018-09-14T19:40:58.415Z,101934.09
2018-09-14T19:43:27.294Z,101927.34
2018-09-14T19:45:56.168Z,101923.78
2018-09-14T19:48:24.965Z,101924.06
2018-09-14T19:50:53.810Z,101922.33
2018-09-14T19:53:22.587Z,101918.65
2018-09-14T19:55:51.432Z,101925.97
2018-09-14T19:58:20.272Z,101924.53
2018-09-14T20:00:49.251Z,101930.33
2018-09-14T20:03:18.063Z,101925.83
2018-09-14T20:05:46.864Z,101924.66
2018-09-14T20:08:15.644Z,101922.25
2018-09-14T20:10:44.536Z,101920.67
2018-09-14T20:13:13.329Z,101920.31
2018-09-14T20:15:47.135Z,101915.69
2018-09-14T20:18:15.966Z,101925.03
2018-09-14T20:20:45.084Z,101923.45
2018-09-14T20:23:14.191Z,101927.05
2018-09-14T20:25:43.024Z,101945.41
2018-09-14T20:28:12.123Z,101955.10
2018-09-14T20:30:41.035Z,101942.86
2018-09-14T20:33:10.109Z,101948.92
2018-09-14T20:35:39.052Z,101943.38
2018-09-14T20:38:07.959Z,101944.80
2018-09-14T20:40:36.814Z,101942.34
2018-09-14T20:43:05.646Z,101939.16
2018-09-14T20:45:34.395Z,101931.48
2018-09-14T20:48:03.267Z,101936.17
2018-09-14T20:50:32.063Z,101932.21
2018-09-14T20:53:00.911Z,101934.33
2018-09-14T20:55:29.694Z,101925.82
2018-09-14T20:57:58.732Z,101936.50
2018-09-14T21:00:27.608Z,101932.58
2018-09-14T21:02:56.448Z,101939.05
2018-09-14T21:05:25.227Z,101936.87
2018-09-14T21:07:54.134Z,101944.59
2018-09-14T21:10:22.886Z,101952.45
2018-09-14T21:12:51.830Z,101952.80
2018-09-14T21:15:20.628Z,101948.64
2018-09-14T21:17:49.452Z,101953.36
2018-09-14T21:20:18.268Z,101949.54
2018-09-14T21:22:47.133Z,101952.16
2018-09-14T21:25:15.904Z,101949.92
2018-09-14T21:27:44.727Z,101947.06
2018-09-14T21:30:13.474Z,101948.17
2018-09-14T21:32:42.267Z,101947.75
2018-09-14T21:35:11.024Z,101946.51
2018-09-14T21:37:39.912Z,101945.72
2018-09-14T21:40:08.719Z,101945.65
2018-09-14T21:42:37.548Z,101944.34
2018-09-14T21:45:06.427Z,101940.86
2018-09-14T21:47:35.214Z,101936.34
2018-09-14T21:50:04.200Z,101937.77
2018-09-14T21:52:32.970Z,101947.22
2018-09-14T21:55:01.924Z,101949.33
2018-09-14T21:57:30.811Z,101949.34
2018-09-14T22:00:04.211Z,101947.59
2018-09-14T22:02:33.124Z,101953.09
2018-09-14T22:05:01.949Z,101942.88
2018-09-14T22:07:30.718Z,101950.25
2018-09-14T22:09:59.540Z,101953.72
2018-09-14T22:12:28.355Z,101951.30
2018-09-14T22:14:57.233Z,101954.17
2018-09-14T22:17:26.003Z,101957.73
2018-09-14T22:19:54.790Z,101947.66
2018-09-14T22:22:23.555Z,101959.55
2018-09-14T22:24:52.408Z,101958.09
2018-09-14T22:27:21.492Z,101959.73
2018-09-14T22:29:50.333Z,101962.47
2018-09-14T22:32:19.090Z,101958.30
2018-09-14T22:34:47.911Z,101955.13
2018-09-14T22:37:16.685Z,101960.77
2018-09-14T22:39:45.628Z,101961.19
2018-09-14T22:42:14.384Z,101962.37
2018-09-14T22:44:43.155Z,101964.00
2018-09-14T22:47:11.995Z,101962.50
2018-09-14T22:49:40.788Z,101958.69
2018-09-14T22:52:09.749Z,101958.97
2018-09-14T22:54:38.512Z,101957.48
2018-09-14T22:57:07.346Z,101961.75
2018-09-14T22:59:36.107Z,101959.48
2018-09-14T23:02:04.948Z,101949.30
2018-09-14T23:04:33.787Z,101959.90
2018-09-14T23:07:02.616Z,101956.50
2018-09-14T23:09:31.378Z,101958.61
2018-09-14T23:12:00.217Z,101967.01
2018-09-14T23:14:29.361Z,101954.77
2018-09-14T23:16:58.253Z,101953.75
2018-09-14T23:19:27.084Z,101960.47
2018-09-14T23:21:55.900Z,101961.69
2018-09-14T23:24:24.668Z,101971.38
2018-09-14T23:26:53.575Z,101963.78
2018-09-14T23:29:22.417Z,101957.31
2018-09-14T23:31:51.204Z,101961.03
2018-09-14T23:34:20.020Z,101962.93
2018-09-14T23:36:48.799Z,101969.23
2018-09-14T23:39:17.660Z,101968.92
2018-09-14T23:41:46.491Z,101965.03
2018-09-14T23:44:15.278Z,101968.55
2018-09-14T23:46:44.059Z,101961.23
2018-09-14T23:49:13.207Z,101958.72
2018-09-14T23:51:41.996Z,101958.80
2018-09-14T23:54:10.862Z,101965.02
2018-09-14T23:56:39.615Z,101963.72
2018-09-14T23:59:08.489Z,101967.45
